sensor_id;sensor_type;location;lat;lon;timestamp;pressure;altitude;pressure_sealevel;temperature;humidity
75221;BME280;63802;53.232;6.570;2022-11-20T00:00:07;101497.50;;;-0.52;94.81
75221;BME280;63802;53.232;6.570;2022-11-20T00:02:33;101496.97;;;-0.49;94.95
75221;BME280;63802;53.232;6.570;2022-11-20T00:04:58;101482.47;;;-0.48;94.25
75221;BME280;63802;53.232;6.570;2022-11-20T00:07:24;101486.75;;;-0.42;94.59
75221;BME280;63802;53.232;6.570;2022-11-20T00:09:49;101479.78;;;-0.43;94.42
75221;BME280;63802;53.232;6.570;2022-11-20T00:12:15;101491.31;;;-0.42;94.19
75221;BME280;63802;53.232;6.570;2022-11-20T00:14:41;101481.94;;;-0.45;94.11
75221;BME280;63802;53.232;6.570;2022-11-20T00:17:06;101483.53;;;-0.44;93.68
75221;BME280;63802;53.232;6.570;2022-11-20T00:19:32;101486.47;;;-0.45;93.53
75221;BME280;63802;53.232;6.570;2022-11-20T00:21:57;101485.69;;;-0.46;92.99
75221;BME280;63802;53.232;6.570;2022-11-20T00:24:23;101475.50;;;-0.49;92.79
75221;BME280;63802;53.232;6.570;2022-11-20T00:26:48;101482.72;;;-0.44;92.99
75221;BME280;63802;53.232;6.570;2022-11-20T00:29:14;101485.41;;;-0.39;92.15
75221;BME280;63802;53.232;6.570;2022-11-20T00:31:39;101485.41;;;-0.39;92.05
75221;BME280;63802;53.232;6.570;2022-11-20T00:34:05;101484.59;;;-0.40;91.52
75221;BME280;63802;53.232;6.570;2022-11-20T00:36:33;101472.28;;;-0.41;91.59
75221;BME280;63802;53.232;6.570;2022-11-20T00:38:59;101472.28;;;-0.41;91.56
75221;BME280;63802;53.232;6.570;2022-11-20T00:41:26;101469.06;;;-0.43;91.58
75221;BME280;63802;53.232;6.570;2022-11-20T00:43:53;101478.72;;;-0.42;91.33
75221;BME280;63802;53.232;6.570;2022-11-20T00:46:21;101486.75;;;-0.42;91.11
75221;BME280;63802;53.232;6.570;2022-11-20T00:48:47;101484.59;;;-0.40;91.36
75221;BME280;63802;53.232;6.570;2022-11-20T00:51:14;101486.22;;;-0.39;90.78
75221;BME280;63802;53.232;6.570;2022-11-20T00:53:41;101470.13;;;-0.39;90.51
75221;BME280;63802;53.232;6.570;2022-11-20T00:56:10;101478.94;;;-0.38;90.50
75221;BME280;63802;53.232;6.570;2022-11-20T00:58:37;101471.19;;;-0.35;90.16
75221;BME280;63802;53.232;6.570;2022-11-20T01:01:06;101466.63;;;-0.34;90.21
75221;BME280;63802;53.232;6.570;2022-11-20T01:03:33;101473.84;;;-0.35;90.48
75221;BME280;63802;53.232;6.570;2022-11-20T01:06:26;101471.97;;;-0.29;90.06
75221;BME280;63802;53.232;6.570;2022-11-20T01:08:54;101462.84;;;-0.28;90.30
75221;BME280;63802;53.232;6.570;2022-11-20T01:11:22;101456.94;;;-0.30;89.78
75221;BME280;63802;53.232;6.570;2022-11-20T01:13:49;101451.88;;;-0.37;89.61
75221;BME280;63802;53.232;6.570;2022-11-20T01:16:18;101462.03;;;-0.29;89.45
75221;BME280;63802;53.232;6.570;2022-11-20T01:18:46;101456.13;;;-0.31;89.53
75221;BME280;63802;53.232;6.570;2022-11-20T01:21:16;101458.00;;;-0.26;89.25
75221;BME280;63802;53.232;6.570;2022-11-20T01:23:42;101457.22;;;-0.27;89.27
75221;BME280;63802;53.232;6.570;2022-11-20T01:26:13;101457.22;;;-0.27;88.61
75221;BME280;63802;53.232;6.570;2022-11-20T01:28:40;101455.06;;;-0.25;88.49
75221;BME280;63802;53.232;6.570;2022-11-20T01:31:22;101455.06;;;-0.25;88.17
75221;BME280;63802;53.232;6.570;2022-11-20T01:33:50;101442.72;;;-0.26;87.89
75221;BME280;63802;53.232;6.570;2022-11-20T01:36:18;101441.38;;;-0.23;88.04
75221;BME280;63802;53.232;6.570;2022-11-20T01:38:44;101442.16;;;-0.18;87.63
75221;BME280;63802;53.232;6.570;2022-11-20T01:41:12;101435.19;;;-0.24;87.86
75221;BME280;63802;53.232;6.570;2022-11-20T01:43:59;101432.50;;;-0.19;88.14
75221;BME280;63802;53.232;6.570;2022-11-20T01:46:24;101432.22;;;-0.17;87.78
75221;BME280;63802;53.232;6.570;2022-11-20T01:49:04;101434.63;;;-0.16;87.80
75221;BME280;63802;53.232;6.570;2022-11-20T01:51:48;101435.44;;;-0.15;88.39
75221;BME280;63802;53.232;6.570;2022-11-20T01:54:34;101434.34;;;-0.14;88.30
75221;BME280;63802;53.232;6.570;2022-11-20T01:57:01;101425.78;;;-0.16;87.99
75221;BME280;63802;53.232;6.570;2022-11-20T01:59:29;101423.59;;;-0.14;88.23
75221;BME280;63802;53.232;6.570;2022-11-20T02:01:55;101412.09;;;-0.15;88.16
75221;BME280;63802;53.232;6.570;2022-11-20T02:04:22;101404.09;;;-0.20;88.60
75221;BME280;63802;53.232;6.570;2022-11-20T02:07:06;101415.31;;;-0.13;88.55
75221;BME280;63802;53.232;6.570;2022-11-20T02:09:32;101402.97;;;-0.14;88.54
75221;BME280;63802;53.232;6.570;2022-11-20T02:12:01;101399.22;;;-0.13;88.75
75221;BME280;63802;53.232;6.570;2022-11-20T02:14:27;101405.63;;;-0.09;89.02
75221;BME280;63802;53.232;6.570;2022-11-20T02:16:54;101384.78;;;-0.22;88.64
75221;BME280;63802;53.232;6.570;2022-11-20T02:19:28;101398.13;;;-0.12;88.53
75221;BME280;63802;53.232;6.570;2022-11-20T02:22:14;101397.88;;;-0.10;88.97
75221;BME280;63802;53.232;6.570;2022-11-20T02:24:45;101397.06;;;-0.11;88.56
75221;BME280;63802;53.232;6.570;2022-11-20T02:27:15;101392.25;;;-0.14;88.90
75221;BME280;63802;53.232;6.570;2022-11-20T02:29:51;101396.50;;;-0.08;88.75
75221;BME280;63802;53.232;6.570;2022-11-20T02:32:23;101395.44;;;-0.12;89.21
75221;BME280;63802;53.232;6.570;2022-11-20T02:34:50;101399.22;;;-0.13;89.30
75221;BME280;63802;53.232;6.570;2022-11-20T02:37:16;101406.44;;;-0.08;89.15
75221;BME280;63802;53.232;6.570;2022-11-20T02:39:43;101404.56;;;-0.08;89.18
75221;BME280;63802;53.232;6.570;2022-11-20T02:42:09;101408.81;;;-0.07;89.08
75221;BME280;63802;53.232;6.570;2022-11-20T02:44:35;101405.88;;;-0.05;89.17
75221;BME280;63802;53.232;6.570;2022-11-20T02:47:00;101406.94;;;-0.06;89.08
75221;BME280;63802;53.232;6.570;2022-11-20T02:49:26;101390.59;;;-0.10;88.59
75221;BME280;63802;53.232;6.570;2022-11-20T02:51:51;101395.38;;;-0.02;88.77
75221;BME280;63802;53.232;6.570;2022-11-20T02:54:17;101388.66;;;0.01;87.93
75221;BME280;63802;53.232;6.570;2022-11-20T02:56:42;101378.75;;;0.02;88.08
75221;BME280;63802;53.232;6.570;2022-11-20T02:59:08;101388.94;;;0.05;87.61
75221;BME280;63802;53.232;6.570;2022-11-20T03:01:34;101384.09;;;0.02;87.79
75221;BME280;63802;53.232;6.570;2022-11-20T03:03:59;101381.44;;;0.02;87.43
75221;BME280;63802;53.232;6.570;2022-11-20T03:06:25;101377.41;;;-0.01;87.53
75221;BME280;63802;53.232;6.570;2022-11-20T03:08:51;101378.19;;;0.05;87.46
75221;BME280;63802;53.232;6.570;2022-11-20T03:11:16;101370.19;;;-0.01;87.42
75221;BME280;63802;53.232;6.570;2022-11-20T03:13:42;101376.28;;;0.05;87.56
75221;BME280;63802;53.232;6.570;2022-11-20T03:16:10;101365.63;;;0.00;87.46
75221;BME280;63802;53.232;6.570;2022-11-20T03:18:37;101354.66;;;-0.09;87.55
75221;BME280;63802;53.232;6.570;2022-11-20T03:21:03;101364.81;;;-0.01;87.53
75221;BME280;63802;53.232;6.570;2022-11-20T03:23:29;101355.66;;;0.00;87.31
75221;BME280;63802;53.232;6.570;2022-11-20T03:25:55;101354.09;;;-0.01;87.20
75221;BME280;63802;53.232;6.570;2022-11-20T03:28:20;101348.72;;;-0.01;87.52
75221;BME280;63802;53.232;6.570;2022-11-20T03:30:46;101351.41;;;-0.01;87.15
75221;BME280;63802;53.232;6.570;2022-11-20T03:33:11;101347.91;;;-0.01;86.89
75221;BME280;63802;53.232;6.570;2022-11-20T03:35:36;101349.53;;;0.00;87.03
75221;BME280;63802;53.232;6.570;2022-11-20T03:38:02;101347.09;;;-0.02;86.87
75221;BME280;63802;53.232;6.570;2022-11-20T03:40:27;101334.22;;;0.00;86.82
75221;BME280;63802;53.232;6.570;2022-11-20T03:42:53;101337.41;;;0.03;86.59
75221;BME280;63802;53.232;6.570;2022-11-20T03:45:18;101325.66;;;-0.02;86.54
75221;BME280;63802;53.232;6.570;2022-11-20T03:47:44;101332.63;;;-0.01;86.67
75221;BME280;63802;53.232;6.570;2022-11-20T03:50:11;101332.03;;;0.03;86.81
75221;BME280;63802;53.232;6.570;2022-11-20T03:52:38;101332.63;;;-0.01;86.78
75221;BME280;63802;53.232;6.570;2022-11-20T03:55:05;101332.03;;;0.03;86.85
75221;BME280;63802;53.232;6.570;2022-11-20T03:57:30;101322.69;;;0.00;86.33
75221;BME280;63802;53.232;6.570;2022-11-20T03:59:56;101320.78;;;0.00;86.11
75221;BME280;63802;53.232;6.570;2022-11-20T04:02:21;101320.03;;;0.00;85.65
75221;BME280;63802;53.232;6.570;2022-11-20T04:04:47;101307.72;;;-0.06;85.69
75221;BME280;63802;53.232;6.570;2022-11-20T04:07:12;101302.63;;;-0.08;85.60
75221;BME280;63802;53.232;6.570;2022-11-20T04:09:37;101312.50;;;0.02;85.75
75221;BME280;63802;53.232;6.570;2022-11-20T04:12:03;101311.72;;;-0.04;85.21
75221;BME280;63802;53.232;6.570;2022-11-20T04:14:28;101312.75;;;0.00;85.25
75221;BME280;63802;53.232;6.570;2022-11-20T04:16:54;101311.16;;;-0.01;85.15
75221;BME280;63802;53.232;6.570;2022-11-20T04:19:19;101311.19;;;-0.06;85.25
75221;BME280;63802;53.232;6.570;2022-11-20T04:21:45;101309.31;;;-0.05;85.11
75221;BME280;63802;53.232;6.570;2022-11-20T04:24:11;101307.97;;;-0.03;85.07
75221;BME280;63802;53.232;6.570;2022-11-20T04:26:37;101307.97;;;-0.03;85.25
75221;BME280;63802;53.232;6.570;2022-11-20T04:29:02;101316.53;;;-0.01;84.98
75221;BME280;63802;53.232;6.570;2022-11-20T04:31:30;101315.94;;;0.03;85.93
75221;BME280;63802;53.232;6.570;2022-11-20T04:34:03;101307.97;;;-0.03;85.86
75221;BME280;63802;53.232;6.570;2022-11-20T04:36:29;101293.50;;;-0.07;85.96
75221;BME280;63802;53.232;6.570;2022-11-20T04:38:57;101297.25;;;-0.03;85.93
75221;BME280;63802;53.232;6.570;2022-11-20T04:41:34;101302.28;;;0.04;86.08
75221;BME280;63802;53.232;6.570;2022-11-20T04:44:01;101298.78;;;0.04;86.40
75221;BME280;63802;53.232;6.570;2022-11-20T04:46:31;101298.78;;;0.04;86.54
75221;BME280;63802;53.232;6.570;2022-11-20T04:48:57;101292.91;;;0.02;86.24
75221;BME280;63802;53.232;6.570;2022-11-20T04:51:23;101280.34;;;-0.03;86.51
75221;BME280;63802;53.232;6.570;2022-11-20T04:53:48;101283.75;;;0.03;86.17
75221;BME280;63802;53.232;6.570;2022-11-20T04:56:14;101276.81;;;0.02;86.18
75221;BME280;63802;53.232;6.570;2022-11-20T04:58:40;101276.81;;;0.02;86.46
75221;BME280;63802;53.232;6.570;2022-11-20T05:01:10;101269.06;;;0.00;86.46
75221;BME280;63802;53.232;6.570;2022-11-20T05:03:39;101266.09;;;0.02;86.63
75221;BME280;63802;53.232;6.570;2022-11-20T05:06:06;101258.38;;;-0.05;86.67
75221;BME280;63802;53.232;6.570;2022-11-20T05:08:32;101274.91;;;0.07;86.31
75221;BME280;63802;53.232;6.570;2022-11-20T05:11:12;101254.88;;;-0.06;86.59
75221;BME280;63802;53.232;6.570;2022-11-20T05:13:38;101266.09;;;0.02;86.90
75221;BME280;63802;53.232;6.570;2022-11-20T05:16:06;101267.91;;;0.06;86.56
75221;BME280;63802;53.232;6.570;2022-11-20T05:18:33;101267.41;;;0.04;85.95
75221;BME280;63802;53.232;6.570;2022-11-20T05:20:59;101263.88;;;0.09;86.12
75221;BME280;63802;53.232;6.570;2022-11-20T05:23:25;101268.72;;;0.07;85.77
75221;BME280;63802;53.232;6.570;2022-11-20T05:25:54;101263.88;;;0.09;85.78
75221;BME280;63802;53.232;6.570;2022-11-20T05:28:20;101262.25;;;0.08;85.86
75221;BME280;63802;53.232;6.570;2022-11-20T05:30:46;101251.81;;;0.06;85.30
75221;BME280;63802;53.232;6.570;2022-11-20T05:33:11;101255.81;;;0.09;85.50
75221;BME280;63802;53.232;6.570;2022-11-20T05:35:36;101250.22;;;0.05;85.23
75221;BME280;63802;53.232;6.570;2022-11-20T05:38:02;101248.84;;;0.08;85.18
75221;BME280;63802;53.232;6.570;2022-11-20T05:40:27;101237.59;;;0.06;85.32
75221;BME280;63802;53.232;6.570;2022-11-20T05:42:53;101233.84;;;0.07;85.84
75221;BME280;63802;53.232;6.570;2022-11-20T05:45:18;101224.75;;;0.03;85.57
75221;BME280;63802;53.232;6.570;2022-11-20T05:47:43;101237.34;;;0.07;85.60
75221;BME280;63802;53.232;6.570;2022-11-20T05:50:09;101226.59;;;0.07;85.48
75221;BME280;63802;53.232;6.570;2022-11-20T05:52:34;101225.81;;;0.07;85.46
75221;BME280;63802;53.232;6.570;2022-11-20T05:55:00;101221.50;;;0.06;85.52
75221;BME280;63802;53.232;6.570;2022-11-20T05:57:25;101228.19;;;0.08;85.61
75221;BME280;63802;53.232;6.570;2022-11-20T05:59:50;101226.84;;;0.11;85.41
75221;BME280;63802;53.232;6.570;2022-11-20T06:02:16;101226.84;;;0.11;85.07
75221;BME280;63802;53.232;6.570;2022-11-20T06:04:41;101229.22;;;0.12;85.43
75221;BME280;63802;53.232;6.570;2022-11-20T06:07:07;101233.81;;;0.12;85.78
75221;BME280;63802;53.232;6.570;2022-11-20T06:09:32;101233.56;;;0.08;85.45
75221;BME280;63802;53.232;6.570;2022-11-20T06:11:58;101228.19;;;0.08;85.53
75221;BME280;63802;53.232;6.570;2022-11-20T06:14:23;101225.81;;;0.07;85.44
75221;BME280;63802;53.232;6.570;2022-11-20T06:16:49;101225.25;;;0.10;85.31
75221;BME280;63802;53.232;6.570;2022-11-20T06:19:14;101220.44;;;0.07;85.37
75221;BME280;63802;53.232;6.570;2022-11-20T06:21:40;101201.78;;;-0.09;85.44
75221;BME280;63802;53.232;6.570;2022-11-20T06:24:06;101233.81;;;0.12;85.45
75221;BME280;63802;53.232;6.570;2022-11-20T06:26:31;101235.72;;;0.06;85.86
75221;BME280;63802;53.232;6.570;2022-11-20T06:28:57;101230.38;;;0.06;85.83
75221;BME280;63802;53.232;6.570;2022-11-20T06:31:24;101226.34;;;0.04;85.75
75221;BME280;63802;53.232;6.570;2022-11-20T06:33:51;101238.59;;;0.15;85.58
75221;BME280;63802;53.232;6.570;2022-11-20T06:36:19;101228.66;;;0.15;85.14
75221;BME280;63802;53.232;6.570;2022-11-20T06:38:45;101241.00;;;0.16;85.62
75221;BME280;63802;53.232;6.570;2022-11-20T06:41:14;101233.75;;;0.17;85.32
75221;BME280;63802;53.232;6.570;2022-11-20T06:43:41;101230.53;;;0.15;85.71
75221;BME280;63802;53.232;6.570;2022-11-20T06:46:06;101245.56;;;0.16;85.61
75221;BME280;63802;53.232;6.570;2022-11-20T06:48:32;101233.22;;;0.15;85.77
75221;BME280;63802;53.232;6.570;2022-11-20T06:50:58;101229.41;;;0.21;85.87
75221;BME280;63802;53.232;6.570;2022-11-20T06:53:23;101229.72;;;0.19;85.76
75221;BME280;63802;53.232;6.570;2022-11-20T06:55:50;101236.38;;;0.22;85.80
75221;BME280;63802;53.232;6.570;2022-11-20T06:58:16;101218.44;;;0.17;85.80
75221;BME280;63802;53.232;6.570;2022-11-20T07:00:42;101222.41;;;0.25;85.97
75221;BME280;63802;53.232;6.570;2022-11-20T07:03:10;101219.19;;;0.23;85.86
75221;BME280;63802;53.232;6.570;2022-11-20T07:05:36;101221.84;;;0.28;85.97
75221;BME280;63802;53.232;6.570;2022-11-20T07:08:03;101219.44;;;0.26;85.91
75221;BME280;63802;53.232;6.570;2022-11-20T07:10:30;101226.41;;;0.27;86.27
75221;BME280;63802;53.232;6.570;2022-11-20T07:12:56;101230.41;;;0.30;86.27
75221;BME280;63802;53.232;6.570;2022-11-20T07:15:23;101223.44;;;0.29;86.29
75221;BME280;63802;53.232;6.570;2022-11-20T07:17:49;101221.84;;;0.28;86.13
75221;BME280;63802;53.232;6.570;2022-11-20T07:20:15;101235.19;;;0.33;86.13
75221;BME280;63802;53.232;6.570;2022-11-20T07:22:43;101232.53;;;0.33;86.46
75221;BME280;63802;53.232;6.570;2022-11-20T07:25:09;101228.47;;;0.35;86.19
75221;BME280;63802;53.232;6.570;2022-11-20T07:27:35;101228.69;;;0.39;86.39
75221;BME280;63802;53.232;6.570;2022-11-20T07:30:01;101237.25;;;0.41;85.95
75221;BME280;63802;53.232;6.570;2022-11-20T07:32:26;101231.31;;;0.44;85.94
75221;BME280;63802;53.232;6.570;2022-11-20T07:34:51;101219.91;;;0.33;85.74
75221;BME280;63802;53.232;6.570;2022-11-20T07:37:17;101237.19;;;0.46;85.86
75221;BME280;63802;53.232;6.570;2022-11-20T07:39:42;101236.19;;;0.42;85.68
75221;BME280;63802;53.232;6.570;2022-11-20T07:42:08;101240.69;;;0.46;85.56
75221;BME280;63802;53.232;6.570;2022-11-20T07:44:34;101253.84;;;0.48;85.73
75221;BME280;63802;53.232;6.570;2022-11-20T07:47:00;101228.13;;;0.42;85.57
75221;BME280;63802;53.232;6.570;2022-11-20T07:49:25;101240.94;;;0.50;86.24
75221;BME280;63802;53.232;6.570;2022-11-20T07:51:51;101239.31;;;0.49;85.96
75221;BME280;63802;53.232;6.570;2022-11-20T07:54:19;101241.97;;;0.54;85.97
75221;BME280;63802;53.232;6.570;2022-11-20T07:56:46;101216.03;;;0.44;86.31
75221;BME280;63802;53.232;6.570;2022-11-20T07:59:12;101233.38;;;0.52;86.03
75221;BME280;63802;53.232;6.570;2022-11-20T08:01:38;101225.63;;;0.50;86.02
75221;BME280;63802;53.232;6.570;2022-11-20T08:04:04;101246.75;;;0.57;85.92
75221;BME280;63802;53.232;6.570;2022-11-20T08:06:29;101239.22;;;0.59;85.48
75221;BME280;63802;53.232;6.570;2022-11-20T08:08:55;101247.22;;;0.64;85.84
75221;BME280;63802;53.232;6.570;2022-11-20T08:11:20;101239.16;;;0.64;85.31
75221;BME280;63802;53.232;6.570;2022-11-20T08:14:04;101237.28;;;0.64;85.41
75221;BME280;63802;53.232;6.570;2022-11-20T08:16:46;101243.88;;;0.72;85.23
75221;BME280;63802;53.232;6.570;2022-11-20T08:19:13;101239.63;;;0.71;84.69
75221;BME280;63802;53.232;6.570;2022-11-20T08:21:39;101234.31;;;0.66;84.94
75221;BME280;63802;53.232;6.570;2022-11-20T08:24:06;101246.25;;;0.79;84.80
75221;BME280;63802;53.232;6.570;2022-11-20T08:26:31;101241.59;;;0.84;85.06
75221;BME280;63802;53.232;6.570;2022-11-20T08:28:58;101247.19;;;0.88;85.00
75221;BME280;63802;53.232;6.570;2022-11-20T08:31:24;101239.44;;;0.86;84.74
75221;BME280;63802;53.232;6.570;2022-11-20T08:33:50;101238.06;;;0.89;84.53
75221;BME280;63802;53.232;6.570;2022-11-20T08:36:16;101235.66;;;0.87;84.57
75221;BME280;63802;53.232;6.570;2022-11-20T08:38:46;101254.34;;;0.97;84.64
75221;BME280;63802;53.232;6.570;2022-11-20T08:41:12;101251.09;;;1.00;84.81
75221;BME280;63802;53.232;6.570;2022-11-20T08:43:55;101244.09;;;0.99;84.61
75221;BME280;63802;53.232;6.570;2022-11-20T08:46:21;101254.28;;;1.02;84.30
75221;BME280;63802;53.232;6.570;2022-11-20T08:48:47;101251.53;;;1.07;84.92
75221;BME280;63802;53.232;6.570;2022-11-20T08:51:12;101216.78;;;0.92;84.44
75221;BME280;63802;53.232;6.570;2022-11-20T08:53:39;101246.66;;;1.09;84.17
75221;BME280;63802;53.232;6.570;2022-11-20T08:56:05;101234.59;;;1.07;83.98
75221;BME280;63802;53.232;6.570;2022-11-20T08:58:30;101230.03;;;1.07;83.84
75221;BME280;63802;53.232;6.570;2022-11-20T09:00:56;101239.63;;;1.13;83.84
75221;BME280;63802;53.232;6.570;2022-11-20T09:03:22;101227.28;;;1.12;83.77
75221;BME280;63802;53.232;6.570;2022-11-20T09:05:59;101227.84;;;1.09;83.43
75221;BME280;63802;53.232;6.570;2022-11-20T09:08:26;101204.91;;;0.98;82.60
75221;BME280;63802;53.232;6.570;2022-11-20T09:10:52;101217.69;;;1.06;82.94
75221;BME280;63802;53.232;6.570;2022-11-20T09:13:19;101229.47;;;1.10;82.52
75221;BME280;63802;53.232;6.570;2022-11-20T09:15:44;101232.84;;;1.16;83.19
75221;BME280;63802;53.232;6.570;2022-11-20T09:18:10;101229.66;;;1.14;82.58
75221;BME280;63802;53.232;6.570;2022-11-20T09:20:35;101216.53;;;1.12;82.07
75221;BME280;63802;53.232;6.570;2022-11-20T09:23:02;101232.06;;;1.15;81.69
75221;BME280;63802;53.232;6.570;2022-11-20T09:25:27;101210.94;;;1.09;81.52
75221;BME280;63802;53.232;6.570;2022-11-20T09:27:59;101227.72;;;1.19;81.51
75221;BME280;63802;53.232;6.570;2022-11-20T09:30:26;101223.41;;;1.18;81.89
75221;BME280;63802;53.232;6.570;2022-11-20T09:32:51;101208.41;;;1.17;81.88
75221;BME280;63802;53.232;6.570;2022-11-20T09:35:17;101217.97;;;1.23;81.80
75221;BME280;63802;53.232;6.570;2022-11-20T09:37:43;101219.00;;;1.27;82.17
75221;BME280;63802;53.232;6.570;2022-11-20T09:40:29;101211.47;;;1.29;81.83
75221;BME280;63802;53.232;6.570;2022-11-20T09:43:46;101214.84;;;1.35;82.12
75221;BME280;63802;53.232;6.570;2022-11-20T09:54:07;101202.66;;;1.43;80.36
75221;BME280;63802;53.232;6.570;2022-11-20T09:56:42;101199.38;;;1.46;80.72
75221;BME280;63802;53.232;6.570;2022-11-20T09:59:23;101194.00;;;1.46;79.96
75221;BME280;63802;53.232;6.570;2022-11-20T10:01:52;101206.25;;;1.52;79.41
75221;BME280;63802;53.232;6.570;2022-11-20T10:04:20;101200.22;;;1.60;78.67
75221;BME280;63802;53.232;6.570;2022-11-20T10:09:32;101186.94;;;1.50;77.84
75221;BME280;63802;53.232;6.570;2022-11-20T10:20:12;101193.91;;;1.69;76.18
75221;BME280;63802;53.232;6.570;2022-11-20T10:23:01;101187.03;;;1.77;76.41
75221;BME280;63802;53.232;6.570;2022-11-20T10:25:42;101180.78;;;1.81;75.97
75221;BME280;63802;53.232;6.570;2022-11-20T10:28:24;101183.66;;;1.85;76.01
75221;BME280;63802;53.232;6.570;2022-11-20T10:31:23;101185.09;;;1.96;76.06
75221;BME280;63802;53.232;6.570;2022-11-20T10:33:54;101182.00;;;1.89;75.81
75221;BME280;63802;53.232;6.570;2022-11-20T10:36:28;101169.84;;;1.91;75.15
75221;BME280;63802;53.232;6.570;2022-11-20T10:39:00;101164.19;;;2.07;74.84
75221;BME280;63802;53.232;6.570;2022-11-20T10:41:30;101144.56;;;2.06;75.32
75221;BME280;63802;53.232;6.570;2022-11-20T10:44:04;101147.25;;;2.20;75.04
75221;BME280;63802;53.232;6.570;2022-11-20T10:46:50;101150.25;;;2.45;74.24
75221;BME280;63802;53.232;6.570;2022-11-20T10:49:18;101139.56;;;2.40;73.47
75221;BME280;63802;53.232;6.570;2022-11-20T11:00:07;101131.16;;;2.83;72.30
75221;BME280;63802;53.232;6.570;2022-11-20T11:03:00;101135.69;;;2.46;71.32
75221;BME280;63802;53.232;6.570;2022-11-20T11:05:46;101126.19;;;2.35;71.59
75221;BME280;63802;53.232;6.570;2022-11-20T11:08:16;101126.41;;;2.39;71.71
75221;BME280;63802;53.232;6.570;2022-11-20T11:10:53;101132.78;;;2.56;71.97
75221;BME280;63802;53.232;6.570;2022-11-20T11:15:46;101129.72;;;2.49;71.39
75221;BME280;63802;53.232;6.570;2022-11-20T11:18:29;101124.19;;;2.54;71.15
75221;BME280;63802;53.232;6.570;2022-11-20T11:20:56;101114.53;;;2.53;71.53
75221;BME280;63802;53.232;6.570;2022-11-20T11:23:34;101111.41;;;2.60;72.14
75221;BME280;63802;53.232;6.570;2022-11-20T11:26:03;101106.44;;;2.53;72.21
75221;BME280;63802;53.232;6.570;2022-11-20T11:28:30;101118.41;;;2.47;71.82
75221;BME280;63802;53.232;6.570;2022-11-20T11:30:56;101110.66;;;2.32;71.63
75221;BME280;63802;53.232;6.570;2022-11-20T11:33:27;101110.88;;;2.22;71.59
75221;BME280;63802;53.232;6.570;2022-11-20T11:35:56;101102.50;;;2.10;72.08
75221;BME280;63802;53.232;6.570;2022-11-20T11:38:34;101086.34;;;2.10;72.01
75221;BME280;63802;53.232;6.570;2022-11-20T11:41:00;101078.94;;;2.02;72.12
75221;BME280;63802;53.232;6.570;2022-11-20T11:43:30;101081.72;;;1.97;72.54
75221;BME280;63802;53.232;6.570;2022-11-20T11:46:34;101083.34;;;1.98;72.49
75221;BME280;63802;53.232;6.570;2022-11-20T11:49:13;101074.56;;;1.92;72.64
75221;BME280;63802;53.232;6.570;2022-11-20T11:57:11;101078.16;;;1.88;73.80
75221;BME280;63802;53.232;6.570;2022-11-20T12:02:53;101072.69;;;1.79;71.96
75221;BME280;63802;53.232;6.570;2022-11-20T12:05:32;101068.69;;;1.77;71.86
75221;BME280;63802;53.232;6.570;2022-11-20T12:11:02;101060.84;;;1.94;72.41
75221;BME280;63802;53.232;6.570;2022-11-20T12:13:40;101062.44;;;2.09;72.04
75221;BME280;63802;53.232;6.570;2022-11-20T12:16:12;101062.78;;;2.29;71.63
75221;BME280;63802;53.232;6.570;2022-11-20T12:18:39;101055.28;;;2.53;69.01
75221;BME280;63802;53.232;6.570;2022-11-20T12:27:08;101044.19;;;3.13;69.38
75221;BME280;63802;53.232;6.570;2022-11-20T12:35:22;101040.41;;;3.75;63.86
75221;BME280;63802;53.232;6.570;2022-11-20T12:40:39;101047.66;;;3.66;61.38
75221;BME280;63802;53.232;6.570;2022-11-20T12:43:19;101040.53;;;3.70;59.65
75221;BME280;63802;53.232;6.570;2022-11-20T12:49:20;101037.28;;;3.29;59.18
75221;BME280;63802;53.232;6.570;2022-11-20T13:00:07;101033.63;;;3.03;61.51
75221;BME280;63802;53.232;6.570;2022-11-20T13:08:35;101017.94;;;3.05;60.78
75221;BME280;63802;53.232;6.570;2022-11-20T13:16:58;101008.41;;;2.99;61.64
75221;BME280;63802;53.232;6.570;2022-11-20T13:19:26;100997.03;;;3.02;62.34
75221;BME280;63802;53.232;6.570;2022-11-20T13:21:53;100988.56;;;2.95;62.46
75221;BME280;63802;53.232;6.570;2022-11-20T13:24:20;100983.78;;;2.92;62.58
75221;BME280;63802;53.232;6.570;2022-11-20T13:29:43;100965.91;;;2.96;62.30
75221;BME280;63802;53.232;6.570;2022-11-20T13:32:20;100968.19;;;3.02;63.25
75221;BME280;63802;53.232;6.570;2022-11-20T13:37:30;100956.84;;;2.92;62.97
75221;BME280;63802;53.232;6.570;2022-11-20T13:42:45;100965.78;;;2.79;63.95
75221;BME280;63802;53.232;6.570;2022-11-20T13:45:28;100968.34;;;2.84;64.15
75221;BME280;63802;53.232;6.570;2022-11-20T13:47:54;100967.88;;;2.82;64.92
75221;BME280;63802;53.232;6.570;2022-11-20T13:53:26;100957.41;;;2.80;65.71
75221;BME280;63802;53.232;6.570;2022-11-20T13:56:01;100937.75;;;2.80;65.49
75221;BME280;63802;53.232;6.570;2022-11-20T13:59:13;100936.66;;;2.81;66.99
75221;BME280;63802;53.232;6.570;2022-11-20T14:01:45;100942.78;;;2.72;66.75
75221;BME280;63802;53.232;6.570;2022-11-20T14:04:17;100920.84;;;2.65;64.93
75221;BME280;63802;53.232;6.570;2022-11-20T14:06:45;100927.81;;;2.66;66.13
75221;BME280;63802;53.232;6.570;2022-11-20T14:09:24;100930.03;;;2.64;66.13
75221;BME280;63802;53.232;6.570;2022-11-20T14:11:50;100917.41;;;2.73;67.46
75221;BME280;63802;53.232;6.570;2022-11-20T14:14:17;100917.03;;;2.66;66.85
75221;BME280;63802;53.232;6.570;2022-11-20T14:16:44;100911.97;;;2.65;66.63
75221;BME280;63802;53.232;6.570;2022-11-20T14:21:45;100917.47;;;2.60;67.27
75221;BME280;63802;53.232;6.570;2022-11-20T14:24:12;100906.53;;;2.56;67.82
75221;BME280;63802;53.232;6.570;2022-11-20T14:26:41;100895.56;;;2.53;68.89
75221;BME280;63802;53.232;6.570;2022-11-20T14:29:17;100894.59;;;2.49;69.90
75221;BME280;63802;53.232;6.570;2022-11-20T14:31:45;100886.22;;;2.50;69.32
75221;BME280;63802;53.232;6.570;2022-11-20T14:34:17;100885.25;;;2.46;69.30
75221;BME280;63802;53.232;6.570;2022-11-20T14:36:44;100893.56;;;2.36;69.25
75221;BME280;63802;53.232;6.570;2022-11-20T14:39:20;100880.22;;;2.31;69.76